sensor_id;sensor_type;location;lat;lon;timestamp;P1;durP1;ratioP1;P2;durP2;ratioP2
15132;SDS011;7667;51.232;17.110;2022-11-20T00:01:32;61.60;;;36.60;;
15132;SDS011;7667;51.232;17.110;2022-11-20T00:04:00;59.90;;;37.00;;
15132;SDS011;7667;51.232;17.110;2022-11-20T00:06:28;73.00;;;43.13;;
15132;SDS011;7667;51.232;17.110;2022-11-20T00:08:57;69.10;;;40.83;;
15132;SDS011;7667;51.232;17.110;2022-11-20T00:11:28;63.47;;;39.57;;
15132;SDS011;7667;51.232;17.110;2022-11-20T00:13:59;62.20;;;38.20;;
15132;SDS011;7667;51.232;17.110;2022-11-20T00:16:30;60.37;;;36.63;;
15132;SDS011;7667;51.232;17.110;2022-11-20T00:18:59;57.17;;;34.63;;
15132;SDS011;7667;51.232;17.110;2022-11-20T00:21:27;59.80;;;36.57;;
15132;SDS011;7667;51.232;17.110;2022-11-20T00:23:56;61.80;;;34.77;;
15132;SDS011;7667;51.232;17.110;2022-11-20T00:26:25;55.90;;;34.37;;
15132;SDS011;7667;51.232;17.110;2022-11-20T00:28:54;66.67;;;36.83;;
15132;SDS011;7667;51.232;17.110;2022-11-20T00:31:24;68.67;;;38.80;;
15132;SDS011;7667;51.232;17.110;2022-11-20T00:33:53;67.27;;;36.07;;
15132;SDS011;7667;51.232;17.110;2022-11-20T00:36:21;67.17;;;36.37;;
15132;SDS011;7667;51.232;17.110;2022-11-20T00:38:56;79.83;;;38.33;;
15132;SDS011;7667;51.232;17.110;2022-11-20T00:41:25;77.97;;;39.30;;
15132;SDS011;7667;51.232;17.110;2022-11-20T00:43:54;90.63;;;42.90;;
15132;SDS011;7667;51.232;17.110;2022-11-20T00:46:24;108.17;;;47.20;;
15132;SDS011;7667;51.232;17.110;2022-11-20T00:48:53;89.27;;;43.60;;
15132;SDS011;7667;51.232;17.110;2022-11-20T00:51:22;73.67;;;37.57;;
15132;SDS011;7667;51.232;17.110;2022-11-20T00:53:54;62.17;;;36.47;;
15132;SDS011;7667;51.232;17.110;2022-11-20T00:56:23;60.20;;;36.23;;
15132;SDS011;7667;51.232;17.110;2022-11-20T00:58:50;62.13;;;35.13;;
15132;SDS011;7667;51.232;17.110;2022-11-20T01:01:19;60.50;;;34.53;;
15132;SDS011;7667;51.232;17.110;2022-11-20T01:03:51;56.70;;;34.23;;
15132;SDS011;7667;51.232;17.110;2022-11-20T01:06:27;64.93;;;36.57;;
15132;SDS011;7667;51.232;17.110;2022-11-20T01:09:00;62.83;;;35.37;;
15132;SDS011;7667;51.232;17.110;2022-11-20T01:11:35;77.80;;;42.03;;
15132;SDS011;7667;51.232;17.110;2022-11-20T01:14:06;86.77;;;44.87;;
15132;SDS011;7667;51.232;17.110;2022-11-20T01:16:38;68.93;;;36.63;;
15132;SDS011;7667;51.232;17.110;2022-11-20T01:19:13;61.17;;;34.93;;
15132;SDS011;7667;51.232;17.110;2022-11-20T01:21:49;70.27;;;37.30;;
15132;SDS011;7667;51.232;17.110;2022-11-20T01:24:21;63.97;;;36.63;;
15132;SDS011;7667;51.232;17.110;2022-11-20T01:26:49;65.57;;;37.00;;
15132;SDS011;7667;51.232;17.110;2022-11-20T01:29:22;66.23;;;36.20;;
15132;SDS011;7667;51.232;17.110;2022-11-20T01:31:51;67.03;;;35.87;;
15132;SDS011;7667;51.232;17.110;2022-11-20T01:34:20;60.50;;;33.90;;
15132;SDS011;7667;51.232;17.110;2022-11-20T01:36:49;55.57;;;32.13;;
15132;SDS011;7667;51.232;17.110;2022-11-20T01:39:24;59.67;;;33.13;;
15132;SDS011;7667;51.232;17.110;2022-11-20T01:41:54;53.27;;;31.43;;
15132;SDS011;7667;51.232;17.110;2022-11-20T01:47:20;65.27;;;33.13;;
15132;SDS011;7667;51.232;17.110;2022-11-20T01:52:56;56.13;;;31.93;;
15132;SDS011;7667;51.232;17.110;2022-11-20T01:55:33;60.60;;;33.77;;
15132;SDS011;7667;51.232;17.110;2022-11-20T01:58:05;58.97;;;32.73;;
15132;SDS011;7667;51.232;17.110;2022-11-20T02:00:33;53.90;;;31.20;;
15132;SDS011;7667;51.232;17.110;2022-11-20T02:03:02;54.33;;;32.07;;
15132;SDS011;7667;51.232;17.110;2022-11-20T02:08:46;51.23;;;29.33;;
15132;SDS011;7667;51.232;17.110;2022-11-20T02:11:13;51.00;;;30.27;;
15132;SDS011;7667;51.232;17.110;2022-11-20T02:13:41;50.80;;;29.57;;
15132;SDS011;7667;51.232;17.110;2022-11-20T02:16:57;49.13;;;29.30;;
15132;SDS011;7667;51.232;17.110;2022-11-20T02:19:07;45.73;;;26.20;;
15132;SDS011;7667;51.232;17.110;2022-11-20T02:21:53;40.87;;;25.03;;
15132;SDS011;7667;51.232;17.110;2022-11-20T02:24:31;45.00;;;26.63;;
15132;SDS011;7667;51.232;17.110;2022-11-20T02:27:06;41.33;;;25.17;;
15132;SDS011;7667;51.232;17.110;2022-11-20T02:29:39;45.40;;;26.67;;
15132;SDS011;7667;51.232;17.110;2022-11-20T02:32:23;43.10;;;25.67;;
15132;SDS011;7667;51.232;17.110;2022-11-20T02:35:06;44.47;;;26.67;;
15132;SDS011;7667;51.232;17.110;2022-11-20T02:37:47;47.03;;;26.80;;
15132;SDS011;7667;51.232;17.110;2022-11-20T02:40:17;44.33;;;25.33;;
15132;SDS011;7667;51.232;17.110;2022-11-20T02:42:45;41.60;;;24.30;;
15132;SDS011;7667;51.232;17.110;2022-11-20T02:45:13;41.50;;;24.23;;
15132;SDS011;7667;51.232;17.110;2022-11-20T02:47:40;44.13;;;26.50;;
15132;SDS011;7667;51.232;17.110;2022-11-20T02:50:08;44.80;;;26.13;;
15132;SDS011;7667;51.232;17.110;2022-11-20T02:52:35;48.83;;;27.60;;
15132;SDS011;7667;51.232;17.110;2022-11-20T02:55:03;48.27;;;27.17;;
15132;SDS011;7667;51.232;17.110;2022-11-20T02:57:31;49.33;;;27.80;;
15132;SDS011;7667;51.232;17.110;2022-11-20T02:59:59;52.97;;;28.63;;
15132;SDS011;7667;51.232;17.110;2022-11-20T03:02:29;50.03;;;26.33;;
15132;SDS011;7667;51.232;17.110;2022-11-20T03:04:57;57.20;;;28.60;;
15132;SDS011;7667;51.232;17.110;2022-11-20T03:07:25;54.33;;;27.53;;
15132;SDS011;7667;51.232;17.110;2022-11-20T03:09:52;50.80;;;27.90;;
15132;SDS011;7667;51.232;17.110;2022-11-20T03:12:20;48.30;;;28.07;;
15132;SDS011;7667;51.232;17.110;2022-11-20T03:14:47;45.40;;;25.63;;
15132;SDS011;7667;51.232;17.110;2022-11-20T03:17:18;44.37;;;25.93;;
15132;SDS011;7667;51.232;17.110;2022-11-20T03:19:46;44.10;;;25.10;;
15132;SDS011;7667;51.232;17.110;2022-11-20T03:22:13;46.77;;;25.67;;
15132;SDS011;7667;51.232;17.110;2022-11-20T03:24:41;56.20;;;30.03;;
15132;SDS011;7667;51.232;17.110;2022-11-20T03:27:08;51.93;;;27.23;;
15132;SDS011;7667;51.232;17.110;2022-11-20T03:29:36;41.43;;;24.23;;
15132;SDS011;7667;51.232;17.110;2022-11-20T03:32:03;51.83;;;27.87;;
15132;SDS011;7667;51.232;17.110;2022-11-20T03:34:31;53.47;;;26.27;;
15132;SDS011;7667;51.232;17.110;2022-11-20T03:36:59;53.73;;;27.33;;
15132;SDS011;7667;51.232;17.110;2022-11-20T03:39:26;61.37;;;29.30;;
15132;SDS011;7667;51.232;17.110;2022-11-20T03:41:54;39.77;;;24.53;;
15132;SDS011;7667;51.232;17.110;2022-11-20T03:44:21;40.13;;;24.00;;
15132;SDS011;7667;51.232;17.110;2022-11-20T03:46:49;40.47;;;24.40;;
15132;SDS011;7667;51.232;17.110;2022-11-20T03:49:16;40.87;;;23.43;;
15132;SDS011;7667;51.232;17.110;2022-11-20T03:51:44;48.70;;;25.90;;
15132;SDS011;7667;51.232;17.110;2022-11-20T03:54:11;49.43;;;26.93;;
15132;SDS011;7667;51.232;17.110;2022-11-20T03:56:39;58.03;;;30.03;;
15132;SDS011;7667;51.232;17.110;2022-11-20T03:59:09;59.40;;;30.20;;
15132;SDS011;7667;51.232;17.110;2022-11-20T04:01:37;56.57;;;30.43;;
15132;SDS011;7667;51.232;17.110;2022-11-20T04:04:04;52.73;;;28.67;;
15132;SDS011;7667;51.232;17.110;2022-11-20T04:06:36;45.70;;;27.07;;
15132;SDS011;7667;51.232;17.110;2022-11-20T04:09:05;45.10;;;26.00;;
15132;SDS011;7667;51.232;17.110;2022-11-20T04:11:34;49.47;;;26.97;;
15132;SDS011;7667;51.232;17.110;2022-11-20T04:14:04;45.27;;;26.63;;
15132;SDS011;7667;51.232;17.110;2022-11-20T04:16:35;43.67;;;25.77;;
15132;SDS011;7667;51.232;17.110;2022-11-20T04:19:03;79.00;;;39.47;;
15132;SDS011;7667;51.232;17.110;2022-11-20T04:21:33;65.43;;;34.67;;
15132;SDS011;7667;51.232;17.110;2022-11-20T04:24:01;63.53;;;32.30;;
15132;SDS011;7667;51.232;17.110;2022-11-20T04:26:29;47.93;;;28.10;;
15132;SDS011;7667;51.232;17.110;2022-11-20T04:28:57;49.67;;;27.73;;
15132;SDS011;7667;51.232;17.110;2022-11-20T04:31:26;53.27;;;28.47;;
15132;SDS011;7667;51.232;17.110;2022-11-20T04:34:00;48.90;;;26.63;;
15132;SDS011;7667;51.232;17.110;2022-11-20T04:36:31;47.83;;;26.77;;
15132;SDS011;7667;51.232;17.110;2022-11-20T04:39:01;44.17;;;25.60;;
15132;SDS011;7667;51.232;17.110;2022-11-20T04:41:32;41.70;;;24.67;;
15132;SDS011;7667;51.232;17.110;2022-11-20T04:44:03;48.60;;;27.58;;
15132;SDS011;7667;51.232;17.110;2022-11-20T04:46:33;56.23;;;30.97;;
15132;SDS011;7667;51.232;17.110;2022-11-20T04:49:06;50.83;;;28.40;;
15132;SDS011;7667;51.232;17.110;2022-11-20T04:51:34;56.57;;;31.03;;
15132;SDS011;7667;51.232;17.110;2022-11-20T04:54:02;52.70;;;29.37;;
15132;SDS011;7667;51.232;17.110;2022-11-20T04:56:29;53.97;;;27.87;;
15132;SDS011;7667;51.232;17.110;2022-11-20T04:58:59;45.30;;;26.57;;
15132;SDS011;7667;51.232;17.110;2022-11-20T05:01:28;45.93;;;25.50;;
15132;SDS011;7667;51.232;17.110;2022-11-20T05:03:56;46.40;;;26.23;;
15132;SDS011;7667;51.232;17.110;2022-11-20T05:06:23;44.80;;;25.60;;
15132;SDS011;7667;51.232;17.110;2022-11-20T05:08:50;43.10;;;25.77;;
15132;SDS011;7667;51.232;17.110;2022-11-20T05:11:19;46.10;;;26.97;;
15132;SDS011;7667;51.232;17.110;2022-11-20T05:13:48;46.83;;;27.27;;
15132;SDS011;7667;51.232;17.110;2022-11-20T05:16:18;46.43;;;28.63;;
15132;SDS011;7667;51.232;17.110;2022-11-20T05:18:48;51.50;;;31.13;;
15132;SDS011;7667;51.232;17.110;2022-11-20T05:21:17;47.53;;;28.27;;
15132;SDS011;7667;51.232;17.110;2022-11-20T05:23:45;45.57;;;27.17;;
15132;SDS011;7667;51.232;17.110;2022-11-20T05:26:14;46.37;;;25.97;;
15132;SDS011;7667;51.232;17.110;2022-11-20T05:28:48;46.50;;;28.03;;
15132;SDS011;7667;51.232;17.110;2022-11-20T05:31:20;42.50;;;25.83;;
15132;SDS011;7667;51.232;17.110;2022-11-20T05:33:54;43.53;;;25.00;;
15132;SDS011;7667;51.232;17.110;2022-11-20T05:36:23;44.10;;;25.67;;
15132;SDS011;7667;51.232;17.110;2022-11-20T05:38:51;43.13;;;25.75;;
15132;SDS011;7667;51.232;17.110;2022-11-20T05:41:26;46.87;;;27.33;;
15132;SDS011;7667;51.232;17.110;2022-11-20T05:43:55;46.63;;;27.27;;
15132;SDS011;7667;51.232;17.110;2022-11-20T05:46:25;48.10;;;28.00;;
15132;SDS011;7667;51.232;17.110;2022-11-20T05:48:55;49.00;;;28.57;;
15132;SDS011;7667;51.232;17.110;2022-11-20T05:51:24;57.50;;;33.10;;
15132;SDS011;7667;51.232;17.110;2022-11-20T05:53:52;63.47;;;35.50;;
15132;SDS011;7667;51.232;17.110;2022-11-20T05:56:20;57.27;;;32.03;;
15132;SDS011;7667;51.232;17.110;2022-11-20T05:58:48;56.00;;;33.07;;
15132;SDS011;7667;51.232;17.110;2022-11-20T06:01:20;47.87;;;27.27;;
15132;SDS011;7667;51.232;17.110;2022-11-20T06:03:52;48.23;;;27.63;;
15132;SDS011;7667;51.232;17.110;2022-11-20T06:06:21;46.07;;;26.13;;
15132;SDS011;7667;51.232;17.110;2022-11-20T06:08:49;48.17;;;27.67;;
15132;SDS011;7667;51.232;17.110;2022-11-20T06:11:17;50.03;;;29.10;;
15132;SDS011;7667;51.232;17.110;2022-11-20T06:13:45;45.73;;;28.53;;
15132;SDS011;7667;51.232;17.110;2022-11-20T06:16:14;45.03;;;28.30;;
15132;SDS011;7667;51.232;17.110;2022-11-20T06:18:45;57.53;;;31.13;;
15132;SDS011;7667;51.232;17.110;2022-11-20T06:21:17;48.97;;;28.17;;
15132;SDS011;7667;51.232;17.110;2022-11-20T06:23:47;50.57;;;28.90;;
15132;SDS011;7667;51.232;17.110;2022-11-20T06:26:20;56.37;;;31.67;;
15132;SDS011;7667;51.232;17.110;2022-11-20T06:28:52;50.50;;;30.70;;
15132;SDS011;7667;51.232;17.110;2022-11-20T06:31:23;50.50;;;29.43;;
15132;SDS011;7667;51.232;17.110;2022-11-20T06:33:52;54.20;;;33.20;;
15132;SDS011;7667;51.232;17.110;2022-11-20T06:36:21;67.53;;;34.47;;
15132;SDS011;7667;51.232;17.110;2022-11-20T06:38:49;52.40;;;29.90;;
15132;SDS011;7667;51.232;17.110;2022-11-20T06:41:18;63.73;;;32.87;;
15132;SDS011;7667;51.232;17.110;2022-11-20T06:43:47;57.90;;;31.60;;
15132;SDS011;7667;51.232;17.110;2022-11-20T06:46:16;52.13;;;30.70;;
15132;SDS011;7667;51.232;17.110;2022-11-20T06:48:45;48.90;;;28.00;;
15132;SDS011;7667;51.232;17.110;2022-11-20T06:51:14;48.27;;;28.67;;
15132;SDS011;7667;51.232;17.110;2022-11-20T06:53:41;46.20;;;28.17;;
15132;SDS011;7667;51.232;17.110;2022-11-20T06:56:09;48.10;;;27.90;;
15132;SDS011;7667;51.232;17.110;2022-11-20T06:58:36;47.73;;;28.40;;
15132;SDS011;7667;51.232;17.110;2022-11-20T07:01:05;46.23;;;28.37;;
15132;SDS011;7667;51.232;17.110;2022-11-20T07:03:36;51.90;;;30.03;;
15132;SDS011;7667;51.232;17.110;2022-11-20T07:06:04;51.93;;;29.33;;
15132;SDS011;7667;51.232;17.110;2022-11-20T07:08:33;50.27;;;29.97;;
15132;SDS011;7667;51.232;17.110;2022-11-20T07:11:02;53.87;;;31.30;;
15132;SDS011;7667;51.232;17.110;2022-11-20T07:13:32;55.03;;;32.00;;
15132;SDS011;7667;51.232;17.110;2022-11-20T07:16:02;62.10;;;33.90;;
15132;SDS011;7667;51.232;17.110;2022-11-20T07:18:32;55.23;;;32.00;;
15132;SDS011;7667;51.232;17.110;2022-11-20T07:21:01;61.90;;;34.03;;
15132;SDS011;7667;51.232;17.110;2022-11-20T07:23:30;68.10;;;35.03;;
15132;SDS011;7667;51.232;17.110;2022-11-20T07:26:02;66.47;;;37.83;;
15132;SDS011;7667;51.232;17.110;2022-11-20T07:28:34;51.57;;;30.83;;
15132;SDS011;7667;51.232;17.110;2022-11-20T07:31:02;58.30;;;33.57;;
15132;SDS011;7667;51.232;17.110;2022-11-20T07:33:31;50.73;;;30.13;;
15132;SDS011;7667;51.232;17.110;2022-11-20T07:35:59;44.03;;;26.63;;
15132;SDS011;7667;51.232;17.110;2022-11-20T07:38:27;46.83;;;27.23;;
15132;SDS011;7667;51.232;17.110;2022-11-20T07:40:55;41.57;;;27.13;;
15132;SDS011;7667;51.232;17.110;2022-11-20T07:43:30;41.77;;;26.77;;
15132;SDS011;7667;51.232;17.110;2022-11-20T07:46:03;49.87;;;31.70;;
15132;SDS011;7667;51.232;17.110;2022-11-20T07:48:31;54.90;;;32.93;;
15132;SDS011;7667;51.232;17.110;2022-11-20T07:50:58;47.83;;;31.77;;
15132;SDS011;7667;51.232;17.110;2022-11-20T07:53:26;37.13;;;25.20;;
15132;SDS011;7667;51.232;17.110;2022-11-20T07:55:53;37.00;;;24.03;;
15132;SDS011;7667;51.232;17.110;2022-11-20T07:58:21;36.73;;;24.43;;
15132;SDS011;7667;51.232;17.110;2022-11-20T08:00:48;35.70;;;24.07;;
15132;SDS011;7667;51.232;17.110;2022-11-20T08:03:16;35.83;;;24.53;;
15132;SDS011;7667;51.232;17.110;2022-11-20T08:05:50;50.00;;;31.83;;
15132;SDS011;7667;51.232;17.110;2022-11-20T08:08:18;45.90;;;29.10;;
15132;SDS011;7667;51.232;17.110;2022-11-20T08:10:45;54.30;;;31.80;;
15132;SDS011;7667;51.232;17.110;2022-11-20T08:13:13;58.40;;;35.83;;
15132;SDS011;7667;51.232;17.110;2022-11-20T08:15:59;45.50;;;29.93;;
15132;SDS011;7667;51.232;17.110;2022-11-20T08:18:26;46.63;;;29.63;;
15132;SDS011;7667;51.232;17.110;2022-11-20T08:20:58;75.63;;;40.63;;
15132;SDS011;7667;51.232;17.110;2022-11-20T08:23:30;74.87;;;39.60;;
15132;SDS011;7667;51.232;17.110;2022-11-20T08:25:57;52.90;;;31.17;;
15132;SDS011;7667;51.232;17.110;2022-11-20T08:28:25;54.10;;;31.80;;
15132;SDS011;7667;51.232;17.110;2022-11-20T08:30:57;40.77;;;25.97;;
15132;SDS011;7667;51.232;17.110;2022-11-20T08:33:28;42.40;;;27.23;;
15132;SDS011;7667;51.232;17.110;2022-11-20T08:36:00;40.37;;;26.27;;
15132;SDS011;7667;51.232;17.110;2022-11-20T08:38:30;47.63;;;30.23;;
15132;SDS011;7667;51.232;17.110;2022-11-20T08:40:58;43.13;;;28.23;;
15132;SDS011;7667;51.232;17.110;2022-11-20T08:43:46;39.83;;;27.10;;
15132;SDS011;7667;51.232;17.110;2022-11-20T08:46:14;39.07;;;26.57;;
15132;SDS011;7667;51.232;17.110;2022-11-20T08:48:41;37.97;;;25.60;;
15132;SDS011;7667;51.232;17.110;2022-11-20T08:51:10;38.40;;;26.17;;
15132;SDS011;7667;51.232;17.110;2022-11-20T08:53:39;37.87;;;26.77;;
15132;SDS011;7667;51.232;17.110;2022-11-20T08:56:08;42.07;;;27.30;;
15132;SDS011;7667;51.232;17.110;2022-11-20T08:58:38;38.97;;;26.77;;
15132;SDS011;7667;51.232;17.110;2022-11-20T09:01:27;39.73;;;27.33;;
15132;SDS011;7667;51.232;17.110;2022-11-20T09:03:56;36.83;;;25.60;;
15132;SDS011;7667;51.232;17.110;2022-11-20T09:06:23;36.27;;;24.77;;
15132;SDS011;7667;51.232;17.110;2022-11-20T09:08:51;36.60;;;24.87;;
15132;SDS011;7667;51.232;17.110;2022-11-20T09:11:20;37.73;;;25.23;;
15132;SDS011;7667;51.232;17.110;2022-11-20T09:13:48;37.20;;;25.70;;
15132;SDS011;7667;51.232;17.110;2022-11-20T09:16:15;33.57;;;23.30;;
15132;SDS011;7667;51.232;17.110;2022-11-20T09:18:43;32.83;;;22.60;;
15132;SDS011;7667;51.232;17.110;2022-11-20T09:21:11;32.20;;;22.20;;
15132;SDS011;7667;51.232;17.110;2022-11-20T09:23:40;31.93;;;21.43;;
15132;SDS011;7667;51.232;17.110;2022-11-20T09:26:11;29.73;;;20.97;;
15132;SDS011;7667;51.232;17.110;2022-11-20T09:28:40;31.77;;;21.30;;
15132;SDS011;7667;51.232;17.110;2022-11-20T09:31:08;40.80;;;27.40;;
15132;SDS011;7667;51.232;17.110;2022-11-20T09:33:46;38.87;;;25.53;;
15132;SDS011;7667;51.232;17.110;2022-11-20T09:36:14;28.70;;;20.53;;
15132;SDS011;7667;51.232;17.110;2022-11-20T09:38:42;31.57;;;22.17;;
15132;SDS011;7667;51.232;17.110;2022-11-20T09:41:14;27.57;;;19.73;;
15132;SDS011;7667;51.232;17.110;2022-11-20T09:50:42;26.40;;;18.53;;
15132;SDS011;7667;51.232;17.110;2022-11-20T09:54:04;22.93;;;17.13;;
15132;SDS011;7667;51.232;17.110;2022-11-20T09:57:10;24.50;;;17.97;;
15132;SDS011;7667;51.232;17.110;2022-11-20T09:59:43;23.90;;;17.80;;
15132;SDS011;7667;51.232;17.110;2022-11-20T10:04:53;26.30;;;18.00;;
15132;SDS011;7667;51.232;17.110;2022-11-20T10:07:32;28.10;;;19.83;;
15132;SDS011;7667;51.232;17.110;2022-11-20T10:10:14;26.50;;;18.40;;
15132;SDS011;7667;51.232;17.110;2022-11-20T10:12:59;25.00;;;16.97;;
15132;SDS011;7667;51.232;17.110;2022-11-20T10:16:57;24.27;;;17.33;;
15132;SDS011;7667;51.232;17.110;2022-11-20T10:31:08;24.63;;;17.40;;
15132;SDS011;7667;51.232;17.110;2022-11-20T10:33:59;24.67;;;17.20;;
15132;SDS011;7667;51.232;17.110;2022-11-20T10:36:52;24.50;;;17.27;;
15132;SDS011;7667;51.232;17.110;2022-11-20T10:39:54;25.60;;;17.67;;
15132;SDS011;7667;51.232;17.110;2022-11-20T10:42:37;24.33;;;16.87;;
15132;SDS011;7667;51.232;17.110;2022-11-20T10:45:16;25.07;;;17.13;;
15132;SDS011;7667;51.232;17.110;2022-11-20T10:47:54;25.93;;;17.93;;
15132;SDS011;7667;51.232;17.110;2022-11-20T10:50:53;26.90;;;18.50;;
15132;SDS011;7667;51.232;17.110;2022-11-20T10:57:30;24.27;;;16.90;;
15132;SDS011;7667;51.232;17.110;2022-11-20T11:00:31;23.80;;;16.13;;
15132;SDS011;7667;51.232;17.110;2022-11-20T11:02:58;19.40;;;14.27;;
15132;SDS011;7667;51.232;17.110;2022-11-20T11:05:31;20.23;;;14.80;;
15132;SDS011;7667;51.232;17.110;2022-11-20T11:08:12;19.33;;;13.67;;
15132;SDS011;7667;51.232;17.110;2022-11-20T11:10:57;24.90;;;16.80;;
15132;SDS011;7667;51.232;17.110;2022-11-20T11:13:29;22.13;;;15.80;;
15132;SDS011;7667;51.232;17.110;2022-11-20T11:15:57;28.97;;;20.33;;
15132;SDS011;7667;51.232;17.110;2022-11-20T11:18:32;19.70;;;14.90;;
15132;SDS011;7667;51.232;17.110;2022-11-20T11:21:02;20.27;;;13.80;;
15132;SDS011;7667;51.232;17.110;2022-11-20T11:23:38;21.03;;;14.17;;
15132;SDS011;7667;51.232;17.110;2022-11-20T11:26:20;21.37;;;14.97;;
15132;SDS011;7667;51.232;17.110;2022-11-20T11:28:56;20.80;;;14.13;;
15132;SDS011;7667;51.232;17.110;2022-11-20T11:31:33;20.93;;;14.53;;
15132;SDS011;7667;51.232;17.110;2022-11-20T11:34:11;20.23;;;13.90;;
15132;SDS011;7667;51.232;17.110;2022-11-20T11:36:52;22.23;;;14.33;;
15132;SDS011;7667;51.232;17.110;2022-11-20T11:39:25;22.30;;;15.47;;
15132;SDS011;7667;51.232;17.110;2022-11-20T11:41:55;22.00;;;14.90;;
15132;SDS011;7667;51.232;17.110;2022-11-20T11:44:27;22.83;;;15.37;;
15132;SDS011;7667;51.232;17.110;2022-11-20T11:47:25;22.20;;;14.63;;
15132;SDS011;7667;51.232;17.110;2022-11-20T11:55:42;20.37;;;14.70;;
15132;SDS011;7667;51.232;17.110;2022-11-20T12:00:51;17.80;;;12.50;;
15132;SDS011;7667;51.232;17.110;2022-11-20T12:03:29;18.17;;;12.40;;
15132;SDS011;7667;51.232;17.110;2022-11-20T12:06:11;20.30;;;13.87;;
15132;SDS011;7667;51.232;17.110;2022-11-20T12:08:59;31.77;;;22.47;;
15132;SDS011;7667;51.232;17.110;2022-11-20T12:14:35;17.20;;;12.93;;
15132;SDS011;7667;51.232;17.110;2022-11-20T12:17:07;18.30;;;12.03;;
15132;SDS011;7667;51.232;17.110;2022-11-20T12:19:39;18.60;;;13.50;;
15132;SDS011;7667;51.232;17.110;2022-11-20T12:22:30;16.90;;;11.63;;
15132;SDS011;7667;51.232;17.110;2022-11-20T12:27:54;14.37;;;10.70;;
15132;SDS011;7667;51.232;17.110;2022-11-20T12:30:33;15.20;;;11.37;;
15132;SDS011;7667;51.232;17.110;2022-11-20T12:36:53;16.57;;;11.53;;
15132;SDS011;7667;51.232;17.110;2022-11-20T12:39:42;16.33;;;11.40;;
15132;SDS011;7667;51.232;17.110;2022-11-20T12:45:37;16.50;;;12.10;;
15132;SDS011;7667;51.232;17.110;2022-11-20T12:54:08;16.43;;;11.40;;
15132;SDS011;7667;51.232;17.110;2022-11-20T13:02:41;16.53;;;11.40;;
15132;SDS011;7667;51.232;17.110;2022-11-20T13:08:34;15.80;;;11.37;;
15132;SDS011;7667;51.232;17.110;2022-11-20T13:11:24;17.03;;;11.90;;
15132;SDS011;7667;51.232;17.110;2022-11-20T13:19:46;12.67;;;9.67;;
15132;SDS011;7667;51.232;17.110;2022-11-20T13:22:27;13.90;;;10.20;;
15132;SDS011;7667;51.232;17.110;2022-11-20T13:25:22;13.80;;;10.20;;
15132;SDS011;7667;51.232;17.110;2022-11-20T13:28:03;14.33;;;10.57;;
15132;SDS011;7667;51.232;17.110;2022-11-20T13:30:56;16.73;;;11.73;;
15132;SDS011;7667;51.232;17.110;2022-11-20T13:33:32;17.90;;;12.40;;
15132;SDS011;7667;51.232;17.110;2022-11-20T13:36:03;18.30;;;11.50;;
15132;SDS011;7667;51.232;17.110;2022-11-20T13:38:51;15.73;;;11.07;;
15132;SDS011;7667;51.232;17.110;2022-11-20T13:41:32;16.30;;;11.93;;
15132;SDS011;7667;51.232;17.110;2022-11-20T13:44:14;16.10;;;10.43;;
15132;SDS011;7667;51.232;17.110;2022-11-20T13:46:52;17.90;;;12.13;;
15132;SDS011;7667;51.232;17.110;2022-11-20T13:49:27;16.73;;;11.27;;
15132;SDS011;7667;51.232;17.110;2022-11-20T14:01:21;23.40;;;14.33;;
15132;SDS011;7667;51.232;17.110;2022-11-20T14:03:52;16.50;;;12.17;;
15132;SDS011;7667;51.232;17.110;2022-11-20T14:06:40;15.90;;;11.57;;
15132;SDS011;7667;51.232;17.110;2022-11-20T14:09:13;16.60;;;11.00;;
15132;SDS011;7667;51.232;17.110;2022-11-20T14:11:57;18.13;;;12.33;;
15132;SDS011;7667;51.232;17.110;2022-11-20T14:14:26;17.67;;;12.60;;
15132;SDS011;7667;51.232;17.110;2022-11-20T14:17:15;18.33;;;14.03;;
15132;SDS011;7667;51.232;17.110;2022-11-20T14:19:44;18.23;;;13.13;;
15132;SDS011;7667;51.232;17.110;2022-11-20T14:22:24;18.13;;;12.70;;
15132;SDS011;7667;51.232;17.110;2022-11-20T14:25:04;16.27;;;11.33;;
15132;SDS011;7667;51.232;17.110;2022-11-20T14:27:47;17.93;;;11.03;;
15132;SDS011;7667;51.232;17.110;2022-11-20T14:30:22;16.87;;;11.37;;
15132;SDS011;7667;51.232;17.110;2022-11-20T14:33:11;19.80;;;13.10;;
15132;SDS011;7667;51.232;17.110;2022-11-20T14:35:44;21.43;;;13.27;;
15132;SDS011;7667;51.232;17.110;2022-11-20T14:38:16;21.50;;;13.73;;
15132;SDS011;7667;51.232;17.110;2022-11-20T14:40:46;20.80;;;13.30;;
15132;SDS011;7667;51.232;17.110;2022-11-20T14:43:26;20.47;;;13.37;;
15132;SDS011;7667;51.232;17.110;2022-11-20T14:45:56;22.50;;;14.30;;
15132;SDS011;7667;51.232;17.110;2022-11-20T14:48:45;22.37;;;15.20;;
15132;SDS011;7667;51.232;17.110;2022-11-20T14:56:58;20.77;;;14.30;;
15132;SDS011;7667;51.232;17.110;2022-11-20T14:59:30;19.60;;;13.83;;
15132;SDS011;7667;51.232;17.110;2022-11-20T15:02:01;20.27;;;14.17;;
15132;SDS011;7667;51.232;17.110;2022-11-20T15:07:24;25.40;;;17.50;;
15132;SDS011;7667;51.232;17.110;2022-11-20T15:12:45;24.10;;;16.37;;
15132;SDS011;7667;51.232;17.110;2022-11-20T15:15:36;23.87;;;16.93;;
15132;SDS011;7667;51.232;17.110;2022-11-20T15:18:12;23.17;;;16.43;;
15132;SDS011;7667;51.232;17.110;2022-11-20T15:20:48;26.43;;;17.70;;
15132;SDS011;7667;51.232;17.110;2022-11-20T15:23:17;22.50;;;16.10;;
15132;SDS011;7667;51.232;17.110;2022-11-20T15:25:46;20.67;;;15.07;;
15132;SDS011;7667;51.232;17.110;2022-11-20T15:28:30;22.60;;;15.97;;
15132;SDS011;7667;51.232;17.110;2022-11-20T15:31:09;20.90;;;14.27;;
15132;SDS011;7667;51.232;17.110;2022-11-20T15:33:39;20.37;;;14.37;;
15132;SDS011;7667;51.232;17.110;2022-11-20T15:36:06;22.70;;;15.33;;
15132;SDS011;7667;51.232;17.110;2022-11-20T15:38:35;28.70;;;18.63;;
15132;SDS011;7667;51.232;17.110;2022-11-20T15:41:03;25.80;;;17.73;;
15132;SDS011;7667;51.232;17.110;2022-11-20T15:43:31;20.83;;;15.30;;
15132;SDS011;7667;51.232;17.110;2022-11-20T15:46:06;20.47;;;15.00;;
15132;SDS011;7667;51.232;17.110;2022-11-20T15:48:41;26.83;;;17.90;;
15132;SDS011;7667;51.232;17.110;2022-11-20T15:51:27;29.60;;;21.07;;
15132;SDS011;7667;51.232;17.110;2022-11-20T15:53:58;24.70;;;16.43;;
15132;SDS011;7667;51.232;17.110;2022-11-20T15:56:26;24.00;;;16.07;;
15132;SDS011;7667;51.232;17.110;2022-11-20T15:58:53;28.37;;;18.53;;
15132;SDS011;7667;51.232;17.110;2022-11-20T16:01:21;26.50;;;19.77;;
15132;SDS011;7667;51.232;17.110;2022-11-20T16:03:49;29.40;;;20.50;;
15132;SDS011;7667;51.232;17.110;2022-11-20T16:06:16;30.37;;;21.03;;
15132;SDS011;7667;51.232;17.110;2022-11-20T16:08:44;31.47;;;21.30;;
15132;SDS011;7667;51.232;17.110;2022-11-20T16:11:12;30.83;;;20.93;;
15132;SDS011;7667;51.232;17.110;2022-11-20T16:13:42;30.90;;;21.67;;
15132;SDS011;7667;51.232;17.110;2022-11-20T16:19:01;38.83;;;25.97;;
15132;SDS011;7667;51.232;17.110;2022-11-20T16:21:29;40.93;;;27.93;;
15132;SDS011;7667;51.232;17.110;2022-11-20T16:24:07;37.50;;;26.00;;
15132;SDS011;7667;51.232;17.110;2022-11-20T16:26:40;30.53;;;21.10;;
15132;SDS011;7667;51.232;17.110;2022-11-20T16:29:07;36.77;;;22.50;;
15132;SDS011;7667;51.232;17.110;2022-11-20T16:31:36;30.30;;;20.10;;
15132;SDS011;7667;51.232;17.110;2022-11-20T16:34:05;29.13;;;19.90;;